createdAt,value
2019-03-19T00:00:17.640Z,174.10
2019-03-19T00:02:45.946Z,179.43
2019-03-19T00:05:14.571Z,218.80
2019-03-19T00:07:43.154Z,207.43
2019-03-19T00:10:11.555Z,212.53
2019-03-19T00:12:40.118Z,207.07
2019-03-19T00:15:15.662Z,205.43
2019-03-19T00:17:44.262Z,202.27
2019-03-19T00:20:14.986Z,202.90
2019-03-19T00:22:43.275Z,203.63
2019-03-19T00:25:11.632Z,206.70
2019-03-19T00:27:39.941Z,164.77
2019-03-19T00:30:11.271Z,141.17
2019-03-19T00:32:39.639Z,152.50
2019-03-19T00:35:08.635Z,154.27
2019-03-19T00:37:37.222Z,146.83
2019-03-19T00:40:08.021Z,153.53
2019-03-19T00:42:36.339Z,158.20
2019-03-19T00:45:07.580Z,167.83
2019-03-19T00:47:36.164Z,158.63
2019-03-19T00:50:10.375Z,155.40
2019-03-19T00:52:38.774Z,168.33
2019-03-19T00:55:07.754Z,197.30
2019-03-19T00:57:36.042Z,192.90
2019-03-19T01:00:10.323Z,196.07
2019-03-19T01:02:38.626Z,200.33
2019-03-19T01:05:08.278Z,187.70
2019-03-19T01:07:36.561Z,191.23
2019-03-19T01:10:12.791Z,187.30
2019-03-19T01:12:41.354Z,184.30
2019-03-19T01:15:11.270Z,185.03
2019-03-19T01:17:39.575Z,184.67
2019-03-19T01:20:11.712Z,182.70
2019-03-19T01:22:40.019Z,175.77
2019-03-19T01:25:09.802Z,178.17
2019-03-19T01:27:38.130Z,175.77
2019-03-19T01:30:14.415Z,162.90
2019-03-19T01:32:43.131Z,165.67
2019-03-19T01:35:11.510Z,155.43
2019-03-19T01:37:41.474Z,166.03
2019-03-19T01:40:12.990Z,182.27
2019-03-19T01:42:41.558Z,175.97
2019-03-19T01:45:11.883Z,167.87
2019-03-19T01:47:40.239Z,164.40
2019-03-19T01:50:14.583Z,159.53
2019-03-19T01:52:43.183Z,161.87
2019-03-19T01:55:15.115Z,170.33
2019-03-19T01:57:43.451Z,166.07
2019-03-19T02:00:19.154Z,160.33
2019-03-19T02:02:47.486Z,161.23
2019-03-19T02:05:15.778Z,158.13
2019-03-19T02:07:44.497Z,161.90
2019-03-19T02:10:14.605Z,149.27
2019-03-19T02:12:42.911Z,151.70
2019-03-19T02:15:14.226Z,150.13
2019-03-19T02:17:42.526Z,145.60
2019-03-19T02:20:13.516Z,143.87
2019-03-19T02:22:41.824Z,141.13
2019-03-19T02:25:10.760Z,152.73
2019-03-19T02:27:39.310Z,147.10
2019-03-19T02:30:17.259Z,137.53
2019-03-19T02:32:45.685Z,137.67
2019-03-19T02:35:14.304Z,132.77
2019-03-19T02:37:42.610Z,136.57
2019-03-19T02:40:12.822Z,129.47
2019-03-19T02:42:41.175Z,134.83
2019-03-19T02:45:13.539Z,118.27
2019-03-19T02:47:41.875Z,116.47
2019-03-19T02:50:19.656Z,120.13
2019-03-19T02:52:47.974Z,119.23
2019-03-19T02:55:16.298Z,121.20
2019-03-19T02:57:44.712Z,130.50
2019-03-19T03:00:15.511Z,115.70
2019-03-19T03:02:44.058Z,118.33
2019-03-19T03:05:14.539Z,124.13
2019-03-19T03:07:43.177Z,118.20
2019-03-19T03:10:12.402Z,118.73
2019-03-19T03:12:41.061Z,121.00
2019-03-19T03:15:11.904Z,114.40
2019-03-19T03:17:40.483Z,120.73
2019-03-19T03:20:10.611Z,108.67
2019-03-19T03:22:38.924Z,112.77
2019-03-19T03:25:18.119Z,111.23
2019-03-19T03:27:46.804Z,111.20
2019-03-19T03:30:16.445Z,102.00
2019-03-19T03:32:45.015Z,114.27
2019-03-19T03:35:13.387Z,102.30
2019-03-19T03:37:41.749Z,105.83
2019-03-19T03:40:14.738Z,98.03
2019-03-19T03:42:43.603Z,97.83
2019-03-19T03:45:13.269Z,102.83
2019-03-19T03:47:42.022Z,100.20
2019-03-19T03:50:20.227Z,95.77
2019-03-19T03:52:48.811Z,95.80
2019-03-19T03:55:20.416Z,93.47
2019-03-19T03:57:48.763Z,91.90
2019-03-19T04:00:19.366Z,92.17
2019-03-19T04:02:47.850Z,94.57
2019-03-19T04:05:16.182Z,92.17
2019-03-19T04:07:45.337Z,92.83
2019-03-19T04:10:14.860Z,88.33
2019-03-19T04:12:43.153Z,84.73
2019-03-19T04:15:15.306Z,79.13
2019-03-19T04:17:43.652Z,83.17
2019-03-19T04:20:14.035Z,79.23
2019-03-19T04:22:42.709Z,82.83
2019-03-19T04:25:11.346Z,83.10
2019-03-19T04:27:42.714Z,83.60
2019-03-19T04:30:15.204Z,78.03
2019-03-19T04:32:43.588Z,76.30
2019-03-19T04:35:11.877Z,73.03
2019-03-19T04:37:40.176Z,79.00
2019-03-19T04:40:15.932Z,75.47
2019-03-19T04:42:44.876Z,80.33
2019-03-19T04:45:14.191Z,71.00
2019-03-19T04:47:42.466Z,72.00
2019-03-19T04:50:14.605Z,72.47
2019-03-19T04:52:42.897Z,70.00
2019-03-19T04:55:12.440Z,72.27
2019-03-19T04:57:40.736Z,71.73
2019-03-19T05:00:14.359Z,69.17
2019-03-19T05:02:42.664Z,65.97
2019-03-19T05:05:12.262Z,67.77
2019-03-19T05:07:40.584Z,67.87
2019-03-19T05:10:15.867Z,64.27
2019-03-19T05:12:44.182Z,63.37
2019-03-19T05:15:12.467Z,60.70
2019-03-19T05:17:40.781Z,54.63
2019-03-19T05:20:11.430Z,60.73
2019-03-19T05:22:39.709Z,63.53
2019-03-19T05:25:08.934Z,57.80
2019-03-19T05:27:37.902Z,68.93
2019-03-19T05:30:12.146Z,75.10
2019-03-19T05:32:40.737Z,62.27
2019-03-19T05:35:09.791Z,56.57
2019-03-19T05:37:38.151Z,58.53
2019-03-19T05:40:09.814Z,66.10
2019-03-19T05:42:38.116Z,78.70
2019-03-19T05:45:09.770Z,68.17
2019-03-19T05:47:40.502Z,60.77
2019-03-19T05:50:14.038Z,63.93
2019-03-19T05:52:42.688Z,60.97
2019-03-19T05:55:11.259Z,66.20
2019-03-19T05:57:48.756Z,60.23
2019-03-19T06:00:13.019Z,61.37
2019-03-19T06:02:41.319Z,59.67
2019-03-19T06:05:11.657Z,56.93
2019-03-19T06:07:39.969Z,57.37
2019-03-19T06:10:12.802Z,58.80
2019-03-19T06:12:41.085Z,57.13
2019-03-19T06:15:14.902Z,55.17
2019-03-19T06:17:43.187Z,61.10
2019-03-19T06:20:19.322Z,58.00
2019-03-19T06:22:47.652Z,54.97
2019-03-19T06:25:15.962Z,58.83
2019-03-19T06:27:44.335Z,55.67
2019-03-19T06:30:23.096Z,53.93
2019-03-19T06:32:51.407Z,56.23
2019-03-19T06:35:20.063Z,52.20
2019-03-19T06:37:48.453Z,52.33
2019-03-19T06:40:19.157Z,52.93
2019-03-19T06:42:47.444Z,49.00
2019-03-19T06:45:22.626Z,50.80
2019-03-19T06:47:50.022Z,49.27
2019-03-19T06:50:20.056Z,49.67
2019-03-19T06:52:48.648Z,51.40
2019-03-19T06:55:18.245Z,50.03
2019-03-19T06:57:46.526Z,49.97
2019-03-19T07:00:24.325Z,49.40
2019-03-19T07:02:52.894Z,46.17
2019-03-19T07:05:21.643Z,49.83
2019-03-19T07:07:49.927Z,44.03
2019-03-19T07:10:19.165Z,46.80
2019-03-19T07:12:47.466Z,46.53
2019-03-19T07:15:18.476Z,44.90
2019-03-19T07:17:47.065Z,42.63
2019-03-19T07:20:23.356Z,41.67
2019-03-19T07:22:52.016Z,43.20
2019-03-19T07:25:20.297Z,44.73
2019-03-19T07:27:48.874Z,44.03
2019-03-19T07:30:21.110Z,43.27
2019-03-19T07:32:49.424Z,41.77
2019-03-19T07:35:17.716Z,40.93
2019-03-19T07:37:45.998Z,39.87
2019-03-19T07:40:15.476Z,40.73
2019-03-19T07:42:44.058Z,39.57
2019-03-19T07:45:20.523Z,41.97
2019-03-19T07:47:48.807Z,40.33
2019-03-19T07:50:18.823Z,40.47
2019-03-19T07:52:47.103Z,36.03
2019-03-19T07:55:15.685Z,38.13
2019-03-19T07:57:43.978Z,45.00
2019-03-19T08:00:18.242Z,40.40
2019-03-19T08:02:46.971Z,39.40
2019-03-19T08:05:15.650Z,56.73
2019-03-19T08:07:44.356Z,86.27
2019-03-19T08:10:19.959Z,92.27
2019-03-19T08:12:49.956Z,94.20
2019-03-19T08:15:19.518Z,86.87
2019-03-19T08:17:48.091Z,90.40
2019-03-19T08:20:17.390Z,84.93
2019-03-19T08:22:45.986Z,79.33
2019-03-19T08:25:15.036Z,83.83
2019-03-19T08:27:43.326Z,74.53
2019-03-19T08:30:17.773Z,76.03
2019-03-19T08:32:46.465Z,82.07
2019-03-19T08:35:14.821Z,113.83
2019-03-19T08:37:43.413Z,119.47
2019-03-19T08:40:19.385Z,113.37
2019-03-19T08:42:47.675Z,116.73
2019-03-19T08:45:20.072Z,121.40
2019-03-19T08:47:48.382Z,116.30
2019-03-19T08:50:18.151Z,111.40
2019-03-19T08:52:46.454Z,114.17
2019-03-19T08:55:14.777Z,114.13
2019-03-19T08:57:44.771Z,108.33
2019-03-19T09:00:20.186Z,104.73
2019-03-19T09:02:48.469Z,114.73
2019-03-19T09:05:17.093Z,118.23
2019-03-19T09:07:45.679Z,132.83
2019-03-19T09:10:18.706Z,145.73
2019-03-19T09:12:48.612Z,154.47
2019-03-19T09:15:19.191Z,142.20
2019-03-19T09:17:47.484Z,138.93
2019-03-19T09:20:16.731Z,133.03
2019-03-19T09:22:45.018Z,144.93
2019-03-19T09:25:13.334Z,150.43
2019-03-19T09:27:41.655Z,137.60
2019-03-19T09:30:18.254Z,159.87
2019-03-19T09:32:46.565Z,205.30
2019-03-19T09:35:15.285Z,198.47
2019-03-19T09:37:44.849Z,176.93
2019-03-19T09:40:16.324Z,180.93
2019-03-19T09:42:44.899Z,176.80
2019-03-19T09:45:14.607Z,177.60
2019-03-19T09:47:43.300Z,157.53
2019-03-19T09:50:18.839Z,152.23
2019-03-19T09:52:47.131Z,152.80
2019-03-19T09:55:15.823Z,155.03
2019-03-19T09:57:44.422Z,170.50
2019-03-19T10:00:21.086Z,191.70
2019-03-19T10:02:49.846Z,189.17
2019-03-19T10:05:18.381Z,181.70
2019-03-19T10:07:46.747Z,191.03
2019-03-19T10:10:17.956Z,195.93
2019-03-19T10:12:46.245Z,204.13
2019-03-19T10:15:16.664Z,182.43
2019-03-19T10:17:45.239Z,182.80
2019-03-19T10:20:18.848Z,175.03
2019-03-19T10:22:47.532Z,186.33
2019-03-19T10:25:16.846Z,197.70
2019-03-19T10:27:45.150Z,195.67
2019-03-19T10:30:17.071Z,196.23
2019-03-19T10:32:45.380Z,190.93
2019-03-19T10:35:13.677Z,179.83
2019-03-19T10:37:41.984Z,185.13
2019-03-19T10:40:15.186Z,186.63
2019-03-19T10:42:44.179Z,226.53
2019-03-19T10:45:20.046Z,201.00
2019-03-19T10:47:48.362Z,214.50
2019-03-19T10:50:22.098Z,210.53
2019-03-19T10:52:50.505Z,198.50
2019-03-19T10:55:19.396Z,199.63
2019-03-19T10:57:47.679Z,177.10
2019-03-19T11:00:20.793Z,192.67
2019-03-19T11:02:49.443Z,180.13
2019-03-19T11:05:19.151Z,179.80
2019-03-19T11:07:47.736Z,182.87
2019-03-19T11:10:16.815Z,177.37
2019-03-19T11:12:45.519Z,168.30
2019-03-19T11:15:24.914Z,167.67
2019-03-19T11:17:53.221Z,161.87
2019-03-19T11:20:21.797Z,145.17
2019-03-19T11:22:50.505Z,138.63
2019-03-19T11:25:21.294Z,140.70
2019-03-19T11:27:49.932Z,167.27
2019-03-19T11:30:26.308Z,170.33
2019-03-19T11:32:54.606Z,164.37
2019-03-19T11:35:22.998Z,161.87
2019-03-19T11:37:51.292Z,158.00
2019-03-19T11:40:22.671Z,156.63
2019-03-19T11:42:51.887Z,158.87
2019-03-19T11:45:23.894Z,173.07
2019-03-19T11:47:52.217Z,195.93
2019-03-19T11:50:33.429Z,167.00
2019-03-19T11:53:01.373Z,180.37
2019-03-19T11:55:29.734Z,179.93
2019-03-19T11:57:58.436Z,175.57
2019-03-19T12:00:34.993Z,166.87
2019-03-19T12:03:14.741Z,170.23
2019-03-19T12:05:33.351Z,159.93
2019-03-19T12:08:01.995Z,156.77
2019-03-19T12:10:30.279Z,155.87
2019-03-19T12:12:58.568Z,151.63
2019-03-19T12:15:27.225Z,154.30
2019-03-19T12:17:55.517Z,153.50
2019-03-19T12:20:24.081Z,151.00
2019-03-19T12:22:52.773Z,152.47
2019-03-19T12:25:21.351Z,197.00
2019-03-19T12:27:49.642Z,175.47
2019-03-19T12:30:25.754Z,173.97
2019-03-19T12:32:52.523Z,165.30
2019-03-19T12:35:20.922Z,165.00
2019-03-19T12:37:49.208Z,165.70
2019-03-19T12:40:21.307Z,169.70
2019-03-19T12:42:49.950Z,164.40
2019-03-19T12:45:20.360Z,177.60
2019-03-19T12:47:48.976Z,170.03
2019-03-19T12:50:22.572Z,166.00
2019-03-19T12:52:51.129Z,154.23
2019-03-19T12:55:19.438Z,151.13
2019-03-19T12:57:48.107Z,165.63
2019-03-19T13:00:33.542Z,159.43
2019-03-19T13:02:54.386Z,155.23
2019-03-19T13:05:22.938Z,162.37
2019-03-19T13:07:51.235Z,159.63
2019-03-19T13:10:23.454Z,154.93
2019-03-19T13:12:51.770Z,149.40
2019-03-19T13:15:20.708Z,156.87
2019-03-19T13:17:49.074Z,147.90
2019-03-19T13:20:18.418Z,145.47
2019-03-19T13:22:47.010Z,146.33
2019-03-19T13:25:21.789Z,141.37
2019-03-19T13:27:50.451Z,142.50
2019-03-19T13:30:24.702Z,133.33
2019-03-19T13:32:56.319Z,137.20
2019-03-19T13:35:24.918Z,138.40
2019-03-19T13:37:53.232Z,134.80
2019-03-19T13:40:21.527Z,131.13
2019-03-19T13:42:50.253Z,134.70
2019-03-19T13:45:23.656Z,131.77
2019-03-19T13:47:51.972Z,132.87
2019-03-19T13:50:21.086Z,133.47
2019-03-19T13:52:49.914Z,126.20
2019-03-19T13:55:21.957Z,124.43
2019-03-19T13:57:50.660Z,129.53
2019-03-19T14:00:19.506Z,118.70
2019-03-19T14:02:47.875Z,122.63
2019-03-19T14:05:17.142Z,129.23
2019-03-19T14:07:45.822Z,118.47
2019-03-19T14:10:19.326Z,114.30
2019-03-19T14:12:48.003Z,113.70
2019-03-19T14:15:24.309Z,113.50
2019-03-19T14:17:52.946Z,122.07
2019-03-19T14:20:21.531Z,134.40
2019-03-19T14:22:50.124Z,131.30
2019-03-19T14:25:18.442Z,133.40
2019-03-19T14:27:46.749Z,136.10
2019-03-19T14:30:22.524Z,125.60
2019-03-19T14:32:51.108Z,125.73
2019-03-19T14:35:19.399Z,120.43
2019-03-19T14:37:47.972Z,127.27
2019-03-19T14:40:21.421Z,132.73
2019-03-19T14:42:49.804Z,136.77
2019-03-19T14:45:18.447Z,134.23
2019-03-19T14:47:47.122Z,145.93
2019-03-19T14:50:19.088Z,143.77
2019-03-19T14:52:47.660Z,152.60
2019-03-19T14:55:16.260Z,149.80
2019-03-19T14:57:44.782Z,145.20
2019-03-19T15:00:21.390Z,149.77
2019-03-19T15:02:49.663Z,131.70
2019-03-19T15:05:19.901Z,137.57
2019-03-19T15:07:48.494Z,176.33
2019-03-19T15:10:23.644Z,177.30
2019-03-19T15:12:52.012Z,174.37
2019-03-19T15:15:23.339Z,163.13
2019-03-19T15:17:51.931Z,164.90
2019-03-19T15:20:27.819Z,162.63
2019-03-19T15:22:56.199Z,153.53
2019-03-19T15:25:24.871Z,143.23
2019-03-19T15:27:53.327Z,141.50
2019-03-19T15:30:22.019Z,137.40
2019-03-19T15:32:50.646Z,141.43
2019-03-19T15:35:18.942Z,131.93
2019-03-19T15:37:47.675Z,140.30
2019-03-19T15:40:18.160Z,128.90
2019-03-19T15:42:48.107Z,183.57
2019-03-19T15:45:21.846Z,156.80
2019-03-19T15:47:50.607Z,174.50
2019-03-19T15:50:19.199Z,155.57
2019-03-19T15:52:49.448Z,175.93
2019-03-19T15:55:17.992Z,162.53
2019-03-19T15:57:49.338Z,159.37
2019-03-19T16:00:21.361Z,155.43
2019-03-19T16:02:49.989Z,157.03
2019-03-19T16:05:18.304Z,147.27
2019-03-19T16:07:47.058Z,137.77
2019-03-19T16:10:17.480Z,149.83
2019-03-19T16:12:45.797Z,157.47
2019-03-19T16:15:22.027Z,151.13
2019-03-19T16:17:50.358Z,141.83
2019-03-19T16:20:19.806Z,140.40
2019-03-19T16:22:50.063Z,152.03
2019-03-19T16:25:18.820Z,145.47
2019-03-19T16:27:47.152Z,152.27
2019-03-19T16:30:16.138Z,153.67
2019-03-19T16:32:44.433Z,157.37
2019-03-19T16:35:13.363Z,159.47
2019-03-19T16:37:41.665Z,155.03
2019-03-19T16:40:22.823Z,150.33
2019-03-19T16:42:51.412Z,151.70
2019-03-19T16:45:20.006Z,151.77
2019-03-19T16:47:48.301Z,145.33
2019-03-19T16:50:17.765Z,145.90
2019-03-19T16:52:49.179Z,129.80
2019-03-19T16:55:21.692Z,134.67
2019-03-19T16:57:50.099Z,138.23
2019-03-19T17:00:27.354Z,140.93
2019-03-19T17:02:55.939Z,138.87
2019-03-19T17:05:24.261Z,146.33
2019-03-19T17:07:52.561Z,145.87
2019-03-19T17:10:23.217Z,143.97
2019-03-19T17:12:53.447Z,144.40
2019-03-19T17:15:22.149Z,148.73
2019-03-19T17:17:50.436Z,138.70
2019-03-19T17:20:19.715Z,133.23
2019-03-19T17:22:48.016Z,142.30
2019-03-19T17:25:21.799Z,143.73
2019-03-19T17:27:53.098Z,138.83
2019-03-19T17:30:35.291Z,132.93
2019-03-19T17:33:03.957Z,138.63
2019-03-19T17:35:32.366Z,136.07
2019-03-19T17:38:00.645Z,130.17
2019-03-19T17:40:29.275Z,126.03
2019-03-19T17:42:57.854Z,134.77
2019-03-19T17:45:26.439Z,125.10
2019-03-19T17:47:54.743Z,125.10
2019-03-19T17:50:30.871Z,128.10
2019-03-19T17:52:59.458Z,112.37
2019-03-19T17:55:28.042Z,114.40
2019-03-19T17:57:56.353Z,124.20
2019-03-19T18:00:30.048Z,122.83
2019-03-19T18:02:58.702Z,126.67
2019-03-19T18:05:26.990Z,126.17
2019-03-19T18:07:55.291Z,124.20
2019-03-19T18:10:23.599Z,121.87
2019-03-19T18:12:52.222Z,123.63
2019-03-19T18:15:20.799Z,115.63
2019-03-19T18:17:49.091Z,119.03
2019-03-19T18:20:18.130Z,117.07
2019-03-19T18:22:46.423Z,124.20
2019-03-19T18:25:19.684Z,120.40
2019-03-19T18:27:48.232Z,119.57
2019-03-19T18:30:17.954Z,114.30
2019-03-19T18:32:46.302Z,114.47
2019-03-19T18:35:14.908Z,101.97
2019-03-19T18:37:43.500Z,109.87
2019-03-19T18:40:16.275Z,117.53
2019-03-19T18:42:44.662Z,129.43
2019-03-19T18:45:19.287Z,128.50
2019-03-19T18:47:47.591Z,126.53
2019-03-19T18:50:18.104Z,120.83
2019-03-19T18:52:46.420Z,116.57
2019-03-19T18:55:14.746Z,118.43
2019-03-19T18:57:43.177Z,113.57
2019-03-19T19:00:19.811Z,110.00
2019-03-19T19:02:50.035Z,115.10
2019-03-19T19:05:19.699Z,108.90
2019-03-19T19:07:48.478Z,113.13
2019-03-19T19:10:17.520Z,113.40
2019-03-19T19:12:46.093Z,107.90
2019-03-19T19:15:22.777Z,109.17
2019-03-19T19:17:51.448Z,107.43
2019-03-19T19:20:19.940Z,101.10
2019-03-19T19:22:48.231Z,97.57
2019-03-19T19:25:20.829Z,110.80
2019-03-19T19:27:49.113Z,118.93
2019-03-19T19:30:26.932Z,122.97
2019-03-19T19:33:01.493Z,116.13
2019-03-19T19:35:25.255Z,119.53
2019-03-19T19:37:53.560Z,118.03
2019-03-19T19:40:22.236Z,112.33
2019-03-19T19:42:50.541Z,122.53
2019-03-19T19:45:19.363Z,115.57
2019-03-19T19:47:47.710Z,93.40
2019-03-19T19:50:17.155Z,101.40
2019-03-19T19:52:45.458Z,94.23
2019-03-19T19:55:14.550Z,104.43
2019-03-19T19:57:43.103Z,107.33
2019-03-19T20:00:17.071Z,115.33
2019-03-19T20:02:45.844Z,108.70
2019-03-19T20:05:14.414Z,106.23
2019-03-19T20:07:42.729Z,110.30
2019-03-19T20:10:21.946Z,105.23
2019-03-19T20:12:50.605Z,103.77
2019-03-19T20:15:18.992Z,102.03
2019-03-19T20:17:47.565Z,102.90
2019-03-19T20:20:20.071Z,107.20
2019-03-19T20:22:48.362Z,99.10
2019-03-19T20:25:16.649Z,104.53
2019-03-19T20:27:44.975Z,105.23
2019-03-19T20:30:16.192Z,139.03
2019-03-19T20:32:44.579Z,120.70
2019-03-19T20:35:12.930Z,113.30
2019-03-19T20:37:41.562Z,108.53
2019-03-19T20:40:16.419Z,111.60
2019-03-19T20:42:44.741Z,108.37
2019-03-19T20:45:14.411Z,101.53
2019-03-19T20:47:42.741Z,100.83
2019-03-19T20:50:16.710Z,109.87
2019-03-19T20:52:45.459Z,124.03
2019-03-19T20:55:13.772Z,109.73
2019-03-19T20:57:42.074Z,106.73
2019-03-19T21:00:17.393Z,109.50
2019-03-19T21:02:46.139Z,103.83
2019-03-19T21:05:14.719Z,99.13
2019-03-19T21:07:43.306Z,105.43
2019-03-19T21:10:17.627Z,117.07
2019-03-19T21:12:45.934Z,119.67
2019-03-19T21:15:28.613Z,111.10
2019-03-19T21:17:56.983Z,112.73
2019-03-19T21:20:25.338Z,111.93
2019-03-19T21:22:53.621Z,117.77
2019-03-19T21:25:23.237Z,113.13
2019-03-19T21:27:51.757Z,108.07
2019-03-19T21:30:24.011Z,109.77
2019-03-19T21:32:52.338Z,117.27
2019-03-19T21:35:21.928Z,113.27
2019-03-19T21:37:50.593Z,118.97
2019-03-19T21:40:18.971Z,139.87
2019-03-19T21:42:47.539Z,138.93
2019-03-19T21:45:17.573Z,152.63
2019-03-19T21:47:46.145Z,145.27
2019-03-19T21:50:18.984Z,149.40
2019-03-19T21:52:47.311Z,154.40
2019-03-19T21:55:15.999Z,152.63
2019-03-19T21:57:44.600Z,144.07
2019-03-19T22:00:16.431Z,172.43
2019-03-19T22:02:44.806Z,176.97
2019-03-19T22:05:13.503Z,178.40
2019-03-19T22:07:42.093Z,178.13
2019-03-19T22:10:12.429Z,180.57
2019-03-19T22:12:41.105Z,179.73
2019-03-19T22:15:17.248Z,170.53
2019-03-19T22:17:45.562Z,169.23
2019-03-19T22:20:13.951Z,174.43
2019-03-19T22:22:42.282Z,173.80
2019-03-19T22:25:12.309Z,161.23
2019-03-19T22:27:40.892Z,150.97
2019-03-19T22:30:14.711Z,143.10
2019-03-19T22:32:43.073Z,151.47
2019-03-19T22:35:13.712Z,165.87
2019-03-19T22:37:44.152Z,160.83
2019-03-19T22:40:14.641Z,160.30
2019-03-19T22:42:42.947Z,155.07
2019-03-19T22:45:15.239Z,150.73
2019-03-19T22:47:44.126Z,151.93
2019-03-19T22:50:18.034Z,148.97
2019-03-19T22:52:46.416Z,150.70
2019-03-19T22:55:15.333Z,144.20
2019-03-19T22:57:43.964Z,146.93
2019-03-19T23:00:19.921Z,149.97
2019-03-19T23:02:48.506Z,142.47
2019-03-19T23:05:16.833Z,137.50
2019-03-19T23:07:45.126Z,142.17
2019-03-19T23:10:13.753Z,150.00
2019-03-19T23:12:42.245Z,169.27
2019-03-19T23:15:11.772Z,184.63
2019-03-19T23:17:40.070Z,187.70
2019-03-19T23:20:14.378Z,183.80
2019-03-19T23:22:42.697Z,182.97
2019-03-19T23:25:10.974Z,176.30
2019-03-19T23:27:39.294Z,185.40
2019-03-19T23:30:13.696Z,176.07
2019-03-19T23:32:42.403Z,168.80
2019-03-19T23:35:10.710Z,163.33
2019-03-19T23:37:39.254Z,160.97
2019-03-19T23:40:10.413Z,178.93
2019-03-19T23:42:39.095Z,202.57
2019-03-19T23:45:12.183Z,201.40
2019-03-19T23:47:40.774Z,193.13
2019-03-19T23:50:14.474Z,177.03
2019-03-19T23:52:42.765Z,175.43
2019-03-19T23:55:11.073Z,189.97
2019-03-19T23:57:39.713Z,185.40
